sensor_id;sensor_type;location;lat;lon;timestamp;temperature;humidity
65826;DHT22;52586;-43.152;172.732;2022-09-09T00:01:31;15.20;54.00
65826;DHT22;52586;-43.152;172.732;2022-09-09T00:04:12;15.20;53.90
65826;DHT22;52586;-43.152;172.732;2022-09-09T00:06:49;15.30;54.00
65826;DHT22;52586;-43.152;172.732;2022-09-09T00:09:23;15.30;53.90
65826;DHT22;52586;-43.152;172.732;2022-09-09T00:12:00;15.30;53.90
65826;DHT22;52586;-43.152;172.732;2022-09-09T00:14:41;15.40;54.00
65826;DHT22;52586;-43.152;172.732;2022-09-09T00:17:18;15.40;54.00
65826;DHT22;52586;-43.152;172.732;2022-09-09T00:19:53;15.40;54.00
65826;DHT22;52586;-43.152;172.732;2022-09-09T00:22:29;15.50;54.10
65826;DHT22;52586;-43.152;172.732;2022-09-09T00:25:08;15.50;54.10
65826;DHT22;52586;-43.152;172.732;2022-09-09T00:27:45;15.50;54.10
65826;DHT22;52586;-43.152;172.732;2022-09-09T00:30:19;15.60;54.10
65826;DHT22;52586;-43.152;172.732;2022-09-09T00:32:53;15.60;54.10
65826;DHT22;52586;-43.152;172.732;2022-09-09T00:35:27;15.60;54.10
65826;DHT22;52586;-43.152;172.732;2022-09-09T00:38:05;15.70;54.10
65826;DHT22;52586;-43.152;172.732;2022-09-09T00:40:45;15.70;54.10
65826;DHT22;52586;-43.152;172.732;2022-09-09T00:43:28;15.70;54.00
65826;DHT22;52586;-43.152;172.732;2022-09-09T00:49:08;15.80;54.00
65826;DHT22;52586;-43.152;172.732;2022-09-09T00:51:49;15.90;54.50
65826;DHT22;52586;-43.152;172.732;2022-09-09T00:54:35;15.90;53.90
65826;DHT22;52586;-43.152;172.732;2022-09-09T00:57:16;15.90;53.80
65826;DHT22;52586;-43.152;172.732;2022-09-09T00:59:56;15.90;53.80
65826;DHT22;52586;-43.152;172.732;2022-09-09T01:02:34;16.00;53.80
65826;DHT22;52586;-43.152;172.732;2022-09-09T01:05:10;16.00;53.80
65826;DHT22;52586;-43.152;172.732;2022-09-09T01:07:47;16.00;53.70
65826;DHT22;52586;-43.152;172.732;2022-09-09T01:10:25;16.00;53.70
65826;DHT22;52586;-43.152;172.732;2022-09-09T01:13:00;16.10;53.70
65826;DHT22;52586;-43.152;172.732;2022-09-09T01:15:34;16.10;53.70
65826;DHT22;52586;-43.152;172.732;2022-09-09T01:18:09;16.10;53.60
65826;DHT22;52586;-43.152;172.732;2022-09-09T01:20:47;16.10;53.60
65826;DHT22;52586;-43.152;172.732;2022-09-09T01:23:38;16.20;53.70
65826;DHT22;52586;-43.152;172.732;2022-09-09T01:26:22;16.20;53.70
65826;DHT22;52586;-43.152;172.732;2022-09-09T01:28:55;16.20;53.70
65826;DHT22;52586;-43.152;172.732;2022-09-09T01:31:28;16.20;53.70
65826;DHT22;52586;-43.152;172.732;2022-09-09T01:34:00;16.20;53.70
65826;DHT22;52586;-43.152;172.732;2022-09-09T02:36:08;16.60;53.60
65826;DHT22;52586;-43.152;172.732;2022-09-09T02:38:44;16.60;53.60
65826;DHT22;52586;-43.152;172.732;2022-09-09T02:41:18;16.60;53.70
65826;DHT22;52586;-43.152;172.732;2022-09-09T02:43:50;16.60;53.60
65826;DHT22;52586;-43.152;172.732;2022-09-09T02:46:29;16.60;53.70
65826;DHT22;52586;-43.152;172.732;2022-09-09T02:49:06;16.60;53.70
65826;DHT22;52586;-43.152;172.732;2022-09-09T02:51:45;16.70;53.80
65826;DHT22;52586;-43.152;172.732;2022-09-09T02:54:26;16.70;53.80
65826;DHT22;52586;-43.152;172.732;2022-09-09T02:57:03;16.70;53.80
65826;DHT22;52586;-43.152;172.732;2022-09-09T02:59:35;16.70;53.80
65826;DHT22;52586;-43.152;172.732;2022-09-09T03:02:06;16.70;53.80
65826;DHT22;52586;-43.152;172.732;2022-09-09T03:04:39;16.70;53.80
65826;DHT22;52586;-43.152;172.732;2022-09-09T03:07:13;16.80;53.80
65826;DHT22;52586;-43.152;172.732;2022-09-09T03:09:44;16.80;53.80
65826;DHT22;52586;-43.152;172.732;2022-09-09T03:12:15;16.80;53.80
65826;DHT22;52586;-43.152;172.732;2022-09-09T03:14:46;16.80;53.80
65826;DHT22;52586;-43.152;172.732;2022-09-09T03:17:16;16.80;53.70
65826;DHT22;52586;-43.152;172.732;2022-09-09T03:19:47;16.80;53.70
65826;DHT22;52586;-43.152;172.732;2022-09-09T03:22:22;16.90;53.70
65826;DHT22;52586;-43.152;172.732;2022-09-09T03:24:52;16.90;53.70
65826;DHT22;52586;-43.152;172.732;2022-09-09T03:27:23;16.90;53.70
65826;DHT22;52586;-43.152;172.732;2022-09-09T03:29:54;16.90;53.70
65826;DHT22;52586;-43.152;172.732;2022-09-09T03:32:25;16.90;53.60
65826;DHT22;52586;-43.152;172.732;2022-09-09T03:34:56;16.90;53.60
65826;DHT22;52586;-43.152;172.732;2022-09-09T03:37:28;16.90;53.60
65826;DHT22;52586;-43.152;172.732;2022-09-09T03:39:59;17.00;53.60
65826;DHT22;52586;-43.152;172.732;2022-09-09T03:42:30;17.00;53.60
65826;DHT22;52586;-43.152;172.732;2022-09-09T03:45:01;17.00;53.60
65826;DHT22;52586;-43.152;172.732;2022-09-09T03:47:31;17.00;53.50
65826;DHT22;52586;-43.152;172.732;2022-09-09T03:50:02;17.00;53.60
65826;DHT22;52586;-43.152;172.732;2022-09-09T03:52:39;17.00;53.50
65826;DHT22;52586;-43.152;172.732;2022-09-09T03:55:10;17.10;53.60
65826;DHT22;52586;-43.152;172.732;2022-09-09T03:57:41;17.10;53.60
65826;DHT22;52586;-43.152;172.732;2022-09-09T04:00:12;17.10;53.60
65826;DHT22;52586;-43.152;172.732;2022-09-09T04:02:43;17.20;53.50
65826;DHT22;52586;-43.152;172.732;2022-09-09T04:05:13;17.20;53.50
65826;DHT22;52586;-43.152;172.732;2022-09-09T04:07:46;17.20;53.40
65826;DHT22;52586;-43.152;172.732;2022-09-09T04:10:17;17.30;53.40
65826;DHT22;52586;-43.152;172.732;2022-09-09T04:12:49;17.30;53.30
65826;DHT22;52586;-43.152;172.732;2022-09-09T04:15:20;17.30;53.40
65826;DHT22;52586;-43.152;172.732;2022-09-09T04:17:50;17.30;53.30
65826;DHT22;52586;-43.152;172.732;2022-09-09T04:20:21;17.30;53.20
65826;DHT22;52586;-43.152;172.732;2022-09-09T04:22:54;17.40;53.30
65826;DHT22;52586;-43.152;172.732;2022-09-09T04:25:24;17.40;53.20
65826;DHT22;52586;-43.152;172.732;2022-09-09T04:27:55;17.40;53.20
65826;DHT22;52586;-43.152;172.732;2022-09-09T04:30:26;17.40;53.20
65826;DHT22;52586;-43.152;172.732;2022-09-09T04:32:58;17.50;53.10
65826;DHT22;52586;-43.152;172.732;2022-09-09T04:35:29;17.50;53.10
65826;DHT22;52586;-43.152;172.732;2022-09-09T04:38:01;17.50;53.00
65826;DHT22;52586;-43.152;172.732;2022-09-09T05:40:08;17.60;52.80
65826;DHT22;52586;-43.152;172.732;2022-09-09T05:42:39;17.60;52.70
65826;DHT22;52586;-43.152;172.732;2022-09-09T05:45:10;17.60;52.70
65826;DHT22;52586;-43.152;172.732;2022-09-09T05:47:40;17.60;52.70
65826;DHT22;52586;-43.152;172.732;2022-09-09T05:50:11;17.60;52.70
65826;DHT22;52586;-43.152;172.732;2022-09-09T05:52:44;17.60;52.80
65826;DHT22;52586;-43.152;172.732;2022-09-09T05:55:19;17.60;52.70
65826;DHT22;52586;-43.152;172.732;2022-09-09T05:57:50;17.60;52.70
65826;DHT22;52586;-43.152;172.732;2022-09-09T06:00:21;17.50;52.70
65826;DHT22;52586;-43.152;172.732;2022-09-09T06:02:52;17.60;52.80
65826;DHT22;52586;-43.152;172.732;2022-09-09T06:05:23;17.60;52.80
65826;DHT22;52586;-43.152;172.732;2022-09-09T06:07:55;17.50;52.80
65826;DHT22;52586;-43.152;172.732;2022-09-09T06:10:27;17.50;52.70
65826;DHT22;52586;-43.152;172.732;2022-09-09T06:12:58;17.50;52.80
65826;DHT22;52586;-43.152;172.732;2022-09-09T06:15:28;17.50;52.70
65826;DHT22;52586;-43.152;172.732;2022-09-09T06:17:59;17.50;52.70
65826;DHT22;52586;-43.152;172.732;2022-09-09T06:20:30;17.40;52.60
65826;DHT22;52586;-43.152;172.732;2022-09-09T06:23:01;17.50;52.60
65826;DHT22;52586;-43.152;172.732;2022-09-09T06:25:33;17.40;52.60
65826;DHT22;52586;-43.152;172.732;2022-09-09T06:28:04;17.40;52.60
65826;DHT22;52586;-43.152;172.732;2022-09-09T06:30:35;17.40;52.60
65826;DHT22;52586;-43.152;172.732;2022-09-09T06:33:06;17.30;52.60
65826;DHT22;52586;-43.152;172.732;2022-09-09T06:35:36;17.30;52.60
65826;DHT22;52586;-43.152;172.732;2022-09-09T06:38:07;17.30;52.60
65826;DHT22;52586;-43.152;172.732;2022-09-09T07:40:13;16.90;52.70
65826;DHT22;52586;-43.152;172.732;2022-09-09T07:42:44;16.90;52.90
65826;DHT22;52586;-43.152;172.732;2022-09-09T07:45:15;16.80;52.90
65826;DHT22;52586;-43.152;172.732;2022-09-09T07:47:45;16.80;52.90
65826;DHT22;52586;-43.152;172.732;2022-09-09T07:50:17;16.80;52.90
65826;DHT22;52586;-43.152;172.732;2022-09-09T07:52:48;16.80;52.90
65826;DHT22;52586;-43.152;172.732;2022-09-09T07:55:21;16.70;52.90
65826;DHT22;52586;-43.152;172.732;2022-09-09T07:57:53;16.70;52.90
65826;DHT22;52586;-43.152;172.732;2022-09-09T08:00:24;16.70;52.90
65826;DHT22;52586;-43.152;172.732;2022-09-09T08:02:56;16.70;52.90
65826;DHT22;52586;-43.152;172.732;2022-09-09T08:05:29;16.70;52.90
65826;DHT22;52586;-43.152;172.732;2022-09-09T08:08:00;16.60;52.90
65826;DHT22;52586;-43.152;172.732;2022-09-09T08:10:34;16.60;52.90
65826;DHT22;52586;-43.152;172.732;2022-09-09T08:13:05;16.60;52.80
65826;DHT22;52586;-43.152;172.732;2022-09-09T08:15:36;16.60;52.80
65826;DHT22;52586;-43.152;172.732;2022-09-09T08:18:07;16.60;52.90
65826;DHT22;52586;-43.152;172.732;2022-09-09T08:20:38;16.50;52.90
65826;DHT22;52586;-43.152;172.732;2022-09-09T08:23:09;16.50;52.90
65826;DHT22;52586;-43.152;172.732;2022-09-09T08:25:42;16.50;52.90
65826;DHT22;52586;-43.152;172.732;2022-09-09T08:28:13;16.50;53.00
65826;DHT22;52586;-43.152;172.732;2022-09-09T08:30:44;16.40;52.90
65826;DHT22;52586;-43.152;172.732;2022-09-09T08:33:15;16.40;52.90
65826;DHT22;52586;-43.152;172.732;2022-09-09T08:35:51;16.40;53.00
65826;DHT22;52586;-43.152;172.732;2022-09-09T08:38:22;16.40;53.00
65826;DHT22;52586;-43.152;172.732;2022-09-09T09:40:55;15.90;53.20
65826;DHT22;52586;-43.152;172.732;2022-09-09T09:43:28;15.80;53.10
65826;DHT22;52586;-43.152;172.732;2022-09-09T09:45:59;15.80;53.20
65826;DHT22;52586;-43.152;172.732;2022-09-09T09:48:31;15.80;53.10
65826;DHT22;52586;-43.152;172.732;2022-09-09T09:51:05;15.80;53.10
65826;DHT22;52586;-43.152;172.732;2022-09-09T09:53:39;15.80;53.10
65826;DHT22;52586;-43.152;172.732;2022-09-09T09:56:13;15.80;53.20
65826;DHT22;52586;-43.152;172.732;2022-09-09T09:58:51;15.70;53.10
65826;DHT22;52586;-43.152;172.732;2022-09-09T10:01:23;15.70;53.20
65826;DHT22;52586;-43.152;172.732;2022-09-09T10:03:56;15.70;53.20
65826;DHT22;52586;-43.152;172.732;2022-09-09T10:06:32;15.70;53.20
65826;DHT22;52586;-43.152;172.732;2022-09-09T10:09:04;15.60;53.20
65826;DHT22;52586;-43.152;172.732;2022-09-09T10:11:56;15.60;53.20
65826;DHT22;52586;-43.152;172.732;2022-09-09T10:14:31;15.60;54.80
65826;DHT22;52586;-43.152;172.732;2022-09-09T10:17:12;15.70;56.30
65826;DHT22;52586;-43.152;172.732;2022-09-09T10:19:54;15.80;56.00
65826;DHT22;52586;-43.152;172.732;2022-09-09T10:22:29;15.80;55.70
65826;DHT22;52586;-43.152;172.732;2022-09-09T10:31:22;15.90;55.90
65826;DHT22;52586;-43.152;172.732;2022-09-09T10:34:01;15.90;55.80
65826;DHT22;52586;-43.152;172.732;2022-09-09T10:36:42;15.90;55.80
65826;DHT22;52586;-43.152;172.732;2022-09-09T10:39:21;15.80;55.60
65826;DHT22;52586;-43.152;172.732;2022-09-09T10:41:59;15.80;55.60
65826;DHT22;52586;-43.152;172.732;2022-09-09T10:45:06;15.80;55.70
65826;DHT22;52586;-43.152;172.732;2022-09-09T10:50:51;15.70;55.50
65826;DHT22;52586;-43.152;172.732;2022-09-09T10:53:30;15.70;55.50
65826;DHT22;52586;-43.152;172.732;2022-09-09T10:56:08;15.70;55.50
65826;DHT22;52586;-43.152;172.732;2022-09-09T10:58:44;15.70;55.50
65826;DHT22;52586;-43.152;172.732;2022-09-09T11:01:22;15.60;55.40
65826;DHT22;52586;-43.152;172.732;2022-09-09T11:03:57;15.60;55.40
65826;DHT22;52586;-43.152;172.732;2022-09-09T11:06:35;15.60;55.40
65826;DHT22;52586;-43.152;172.732;2022-09-09T11:09:16;15.50;55.30
65826;DHT22;52586;-43.152;172.732;2022-09-09T11:11:51;15.50;55.30
65826;DHT22;52586;-43.152;172.732;2022-09-09T11:14:29;15.50;55.30
65826;DHT22;52586;-43.152;172.732;2022-09-09T11:17:06;15.50;55.50
65826;DHT22;52586;-43.152;172.732;2022-09-09T11:19:40;15.50;55.60
65826;DHT22;52586;-43.152;172.732;2022-09-09T11:22:19;15.40;55.60
65826;DHT22;52586;-43.152;172.732;2022-09-09T11:24:54;15.40;55.60
65826;DHT22;52586;-43.152;172.732;2022-09-09T11:27:29;15.40;55.50
65826;DHT22;52586;-43.152;172.732;2022-09-09T11:30:17;15.40;55.50
65826;DHT22;52586;-43.152;172.732;2022-09-09T11:33:14;15.40;55.40
65826;DHT22;52586;-43.152;172.732;2022-09-09T11:36:02;15.30;55.30
65826;DHT22;52586;-43.152;172.732;2022-09-09T11:41:17;15.30;55.20
65826;DHT22;52586;-43.152;172.732;2022-09-09T11:43:49;15.20;55.20
65826;DHT22;52586;-43.152;172.732;2022-09-09T11:46:22;15.20;55.20
65826;DHT22;52586;-43.152;172.732;2022-09-09T11:49:02;15.20;55.10
65826;DHT22;52586;-43.152;172.732;2022-09-09T11:51:34;15.10;55.10
65826;DHT22;52586;-43.152;172.732;2022-09-09T11:54:29;15.10;55.10
65826;DHT22;52586;-43.152;172.732;2022-09-09T11:57:00;15.10;55.10
65826;DHT22;52586;-43.152;172.732;2022-09-09T11:59:33;15.10;55.00
65826;DHT22;52586;-43.152;172.732;2022-09-09T12:02:13;15.10;55.00
65826;DHT22;52586;-43.152;172.732;2022-09-09T12:04:55;15.00;54.90
65826;DHT22;52586;-43.152;172.732;2022-09-09T12:07:34;15.00;54.90
65826;DHT22;52586;-43.152;172.732;2022-09-09T12:10:22;15.00;54.90
65826;DHT22;52586;-43.152;172.732;2022-09-09T12:12:54;15.00;54.90
65826;DHT22;52586;-43.152;172.732;2022-09-09T12:15:27;15.00;54.80
65826;DHT22;52586;-43.152;172.732;2022-09-09T12:17:58;14.90;54.80
65826;DHT22;52586;-43.152;172.732;2022-09-09T12:20:35;14.90;54.80
65826;DHT22;52586;-43.152;172.732;2022-09-09T12:23:22;14.90;55.40
65826;DHT22;52586;-43.152;172.732;2022-09-09T12:26:07;14.80;54.70
65826;DHT22;52586;-43.152;172.732;2022-09-09T12:28:52;14.80;54.70
65826;DHT22;52586;-43.152;172.732;2022-09-09T12:31:28;14.80;54.70
65826;DHT22;52586;-43.152;172.732;2022-09-09T12:34:13;14.80;54.70
65826;DHT22;52586;-43.152;172.732;2022-09-09T12:36:53;14.80;54.60
65826;DHT22;52586;-43.152;172.732;2022-09-09T12:39:29;14.70;54.50
65826;DHT22;52586;-43.152;172.732;2022-09-09T12:42:02;14.70;54.50
65826;DHT22;52586;-43.152;172.732;2022-09-09T12:44:33;14.70;54.50
65826;DHT22;52586;-43.152;172.732;2022-09-09T12:47:04;14.70;54.50
65826;DHT22;52586;-43.152;172.732;2022-09-09T12:49:36;14.70;54.50
65826;DHT22;52586;-43.152;172.732;2022-09-09T12:52:16;14.70;54.50
65826;DHT22;52586;-43.152;172.732;2022-09-09T12:54:48;14.70;54.50
65826;DHT22;52586;-43.152;172.732;2022-09-09T12:57:23;14.60;54.40
65826;DHT22;52586;-43.152;172.732;2022-09-09T13:00:06;14.60;54.40
65826;DHT22;52586;-43.152;172.732;2022-09-09T13:02:47;14.60;54.50
65826;DHT22;52586;-43.152;172.732;2022-09-09T13:05:20;14.50;54.40
65826;DHT22;52586;-43.152;172.732;2022-09-09T13:08:01;14.60;54.40
65826;DHT22;52586;-43.152;172.732;2022-09-09T13:10:35;14.50;54.40
65826;DHT22;52586;-43.152;172.732;2022-09-09T13:13:14;14.50;54.30
65826;DHT22;52586;-43.152;172.732;2022-09-09T13:15:51;14.50;54.30
65826;DHT22;52586;-43.152;172.732;2022-09-09T13:18:24;14.50;54.30
65826;DHT22;52586;-43.152;172.732;2022-09-09T13:20:55;14.50;54.30
65826;DHT22;52586;-43.152;172.732;2022-09-09T13:23:31;14.50;54.30
65826;DHT22;52586;-43.152;172.732;2022-09-09T13:26:04;14.40;54.20
65826;DHT22;52586;-43.152;172.732;2022-09-09T13:28:35;14.40;54.20
65826;DHT22;52586;-43.152;172.732;2022-09-09T13:31:19;14.40;54.20
65826;DHT22;52586;-43.152;172.732;2022-09-09T13:33:50;14.40;54.20
65826;DHT22;52586;-43.152;172.732;2022-09-09T13:36:29;14.40;54.20
65826;DHT22;52586;-43.152;172.732;2022-09-09T14:41:12;14.00;53.70
65826;DHT22;52586;-43.152;172.732;2022-09-09T14:43:44;14.00;53.70
65826;DHT22;52586;-43.152;172.732;2022-09-09T14:46:17;13.90;53.70
65826;DHT22;52586;-43.152;172.732;2022-09-09T14:48:51;14.00;53.80
65826;DHT22;52586;-43.152;172.732;2022-09-09T14:51:23;13.90;53.80
65826;DHT22;52586;-43.152;172.732;2022-09-09T14:53:55;13.90;53.70
65826;DHT22;52586;-43.152;172.732;2022-09-09T14:56:29;13.90;53.80
65826;DHT22;52586;-43.152;172.732;2022-09-09T14:59:02;13.90;53.70
65826;DHT22;52586;-43.152;172.732;2022-09-09T15:01:33;13.90;53.70
65826;DHT22;52586;-43.152;172.732;2022-09-09T15:04:05;13.90;53.70
65826;DHT22;52586;-43.152;172.732;2022-09-09T15:06:36;13.90;53.70
65826;DHT22;52586;-43.152;172.732;2022-09-09T15:09:07;13.90;53.70
65826;DHT22;52586;-43.152;172.732;2022-09-09T15:11:39;13.90;53.70
65826;DHT22;52586;-43.152;172.732;2022-09-09T15:14:11;13.80;53.60
65826;DHT22;52586;-43.152;172.732;2022-09-09T15:16:41;13.80;53.60
65826;DHT22;52586;-43.152;172.732;2022-09-09T15:19:16;13.80;53.60
65826;DHT22;52586;-43.152;172.732;2022-09-09T15:21:46;13.80;53.70
65826;DHT22;52586;-43.152;172.732;2022-09-09T15:24:17;13.80;53.70
65826;DHT22;52586;-43.152;172.732;2022-09-09T15:26:49;13.80;53.70
65826;DHT22;52586;-43.152;172.732;2022-09-09T15:29:21;13.70;53.70
65826;DHT22;52586;-43.152;172.732;2022-09-09T15:31:53;13.70;53.70
65826;DHT22;52586;-43.152;172.732;2022-09-09T15:34:24;13.70;53.70
65826;DHT22;52586;-43.152;172.732;2022-09-09T15:36:55;13.70;53.70
65826;DHT22;52586;-43.152;172.732;2022-09-09T15:39:27;13.70;53.70
65826;DHT22;52586;-43.152;172.732;2022-09-09T15:42:00;13.70;53.70
65826;DHT22;52586;-43.152;172.732;2022-09-09T15:47:11;13.70;53.60
65826;DHT22;52586;-43.152;172.732;2022-09-09T15:49:43;13.70;53.60
65826;DHT22;52586;-43.152;172.732;2022-09-09T15:52:14;13.70;53.60
65826;DHT22;52586;-43.152;172.732;2022-09-09T15:54:45;13.70;53.50
65826;DHT22;52586;-43.152;172.732;2022-09-09T15:57:17;13.70;53.60
65826;DHT22;52586;-43.152;172.732;2022-09-09T15:59:48;13.60;53.60
65826;DHT22;52586;-43.152;172.732;2022-09-09T16:02:19;13.60;53.60
65826;DHT22;52586;-43.152;172.732;2022-09-09T16:04:50;13.60;53.60
65826;DHT22;52586;-43.152;172.732;2022-09-09T16:07:20;13.60;53.60
65826;DHT22;52586;-43.152;172.732;2022-09-09T16:09:51;13.60;53.60
65826;DHT22;52586;-43.152;172.732;2022-09-09T16:12:24;13.60;53.60
65826;DHT22;52586;-43.152;172.732;2022-09-09T16:14:54;13.60;53.60
65826;DHT22;52586;-43.152;172.732;2022-09-09T16:17:25;13.60;53.60
65826;DHT22;52586;-43.152;172.732;2022-09-09T16:19:56;13.60;53.60
65826;DHT22;52586;-43.152;172.732;2022-09-09T16:22:27;13.60;53.60
65826;DHT22;52586;-43.152;172.732;2022-09-09T16:24:57;13.60;53.60
65826;DHT22;52586;-43.152;172.732;2022-09-09T16:27:30;13.60;53.60
65826;DHT22;52586;-43.152;172.732;2022-09-09T16:30:01;13.50;53.50
65826;DHT22;52586;-43.152;172.732;2022-09-09T16:32:32;13.50;53.50
65826;DHT22;52586;-43.152;172.732;2022-09-09T16:35:03;13.50;53.60
65826;DHT22;52586;-43.152;172.732;2022-09-09T16:37:35;13.50;53.60
65826;DHT22;52586;-43.152;172.732;2022-09-09T16:40:06;13.50;53.50
65826;DHT22;52586;-43.152;172.732;2022-09-09T16:42:39;13.50;53.60
65826;DHT22;52586;-43.152;172.732;2022-09-09T16:45:10;13.50;53.60
65826;DHT22;52586;-43.152;172.732;2022-09-09T16:47:41;13.50;53.50
65826;DHT22;52586;-43.152;172.732;2022-09-09T16:50:12;13.50;53.60
65826;DHT22;52586;-43.152;172.732;2022-09-09T16:52:43;13.50;53.60
65826;DHT22;52586;-43.152;172.732;2022-09-09T16:55:14;13.50;53.60
65826;DHT22;52586;-43.152;172.732;2022-09-09T16:57:47;13.40;53.50
65826;DHT22;52586;-43.152;172.732;2022-09-09T17:00:17;13.50;53.50
65826;DHT22;52586;-43.152;172.732;2022-09-09T17:02:49;13.40;53.50
65826;DHT22;52586;-43.152;172.732;2022-09-09T17:05:19;13.40;53.50
65826;DHT22;52586;-43.152;172.732;2022-09-09T17:07:50;13.40;53.50
65826;DHT22;52586;-43.152;172.732;2022-09-09T17:10:22;13.40;53.50
65826;DHT22;52586;-43.152;172.732;2022-09-09T17:12:54;13.40;53.50
65826;DHT22;52586;-43.152;172.732;2022-09-09T17:15:25;13.40;53.50
65826;DHT22;52586;-43.152;172.732;2022-09-09T17:17:56;13.40;53.50
65826;DHT22;52586;-43.152;172.732;2022-09-09T17:20:27;13.40;53.50
65826;DHT22;52586;-43.152;172.732;2022-09-09T17:22:57;13.40;53.60
65826;DHT22;52586;-43.152;172.732;2022-09-09T17:25:28;13.30;53.50
65826;DHT22;52586;-43.152;172.732;2022-09-09T17:28:01;13.30;53.50
65826;DHT22;52586;-43.152;172.732;2022-09-09T17:30:34;13.30;53.50
65826;DHT22;52586;-43.152;172.732;2022-09-09T17:33:05;13.30;53.50
65826;DHT22;52586;-43.152;172.732;2022-09-09T17:35:36;13.30;53.50
65826;DHT22;52586;-43.152;172.732;2022-09-09T17:38:07;13.30;53.50
65826;DHT22;52586;-43.152;172.732;2022-09-09T17:40:39;13.30;53.50
65826;DHT22;52586;-43.152;172.732;2022-09-09T17:43:12;13.30;53.50
65826;DHT22;52586;-43.152;172.732;2022-09-09T17:45:43;13.30;53.50
65826;DHT22;52586;-43.152;172.732;2022-09-09T17:48:14;13.30;53.50
65826;DHT22;52586;-43.152;172.732;2022-09-09T17:50:45;13.30;53.50
65826;DHT22;52586;-43.152;172.732;2022-09-09T17:53:16;13.30;53.50
65826;DHT22;52586;-43.152;172.732;2022-09-09T17:55:46;13.20;53.50
65826;DHT22;52586;-43.152;172.732;2022-09-09T17:58:19;13.20;53.50
65826;DHT22;52586;-43.152;172.732;2022-09-09T18:00:49;13.20;53.50
65826;DHT22;52586;-43.152;172.732;2022-09-09T18:03:20;13.20;53.50
65826;DHT22;52586;-43.152;172.732;2022-09-09T18:05:51;13.20;53.50
65826;DHT22;52586;-43.152;172.732;2022-09-09T18:08:21;13.20;53.50
65826;DHT22;52586;-43.152;172.732;2022-09-09T18:10:53;13.20;53.50
65826;DHT22;52586;-43.152;172.732;2022-09-09T18:13:26;13.20;53.50
65826;DHT22;52586;-43.152;172.732;2022-09-09T18:15:57;13.20;53.50
65826;DHT22;52586;-43.152;172.732;2022-09-09T18:18:28;13.20;53.50
65826;DHT22;52586;-43.152;172.732;2022-09-09T18:20:59;13.20;53.50
65826;DHT22;52586;-43.152;172.732;2022-09-09T18:23:35;13.10;53.40
65826;DHT22;52586;-43.152;172.732;2022-09-09T18:26:10;13.20;53.50
65826;DHT22;52586;-43.152;172.732;2022-09-09T18:28:46;13.10;53.40
65826;DHT22;52586;-43.152;172.732;2022-09-09T18:31:18;13.10;53.40
65826;DHT22;52586;-43.152;172.732;2022-09-09T18:33:50;13.10;53.40
65826;DHT22;52586;-43.152;172.732;2022-09-09T18:36:23;13.10;53.50
65826;DHT22;52586;-43.152;172.732;2022-09-09T18:38:55;13.10;53.50
65826;DHT22;52586;-43.152;172.732;2022-09-09T19:41:06;12.90;53.50
65826;DHT22;52586;-43.152;172.732;2022-09-09T19:43:37;13.00;53.60
65826;DHT22;52586;-43.152;172.732;2022-09-09T19:46:09;13.00;53.50
65826;DHT22;52586;-43.152;172.732;2022-09-09T19:48:41;13.00;53.50
65826;DHT22;52586;-43.152;172.732;2022-09-09T19:51:13;13.00;53.50
65826;DHT22;52586;-43.152;172.732;2022-09-09T19:53:45;13.00;53.50
65826;DHT22;52586;-43.152;172.732;2022-09-09T19:56:19;13.00;53.40
65826;DHT22;52586;-43.152;172.732;2022-09-09T19:58:51;13.00;53.40
65826;DHT22;52586;-43.152;172.732;2022-09-09T20:01:24;13.00;53.40
65826;DHT22;52586;-43.152;172.732;2022-09-09T20:03:56;13.10;53.40
65826;DHT22;52586;-43.152;172.732;2022-09-09T20:06:29;13.10;53.40
65826;DHT22;52586;-43.152;172.732;2022-09-09T20:09:00;13.10;53.40
65826;DHT22;52586;-43.152;172.732;2022-09-09T20:11:33;13.10;53.40
65826;DHT22;52586;-43.152;172.732;2022-09-09T20:14:05;13.10;53.40
65826;DHT22;52586;-43.152;172.732;2022-09-09T20:16:36;13.20;53.40
65826;DHT22;52586;-43.152;172.732;2022-09-09T20:19:08;13.20;53.40
65826;DHT22;52586;-43.152;172.732;2022-09-09T20:21:40;13.20;53.40
65826;DHT22;52586;-43.152;172.732;2022-09-09T20:24:14;13.30;53.40
65826;DHT22;52586;-43.152;172.732;2022-09-09T20:26:47;13.30;53.40
65826;DHT22;52586;-43.152;172.732;2022-09-09T20:29:19;13.30;53.30
65826;DHT22;52586;-43.152;172.732;2022-09-09T20:31:49;13.30;53.30
65826;DHT22;52586;-43.152;172.732;2022-09-09T20:34:20;13.30;53.30
65826;DHT22;52586;-43.152;172.732;2022-09-09T20:36:53;13.30;53.30
65826;DHT22;52586;-43.152;172.732;2022-09-09T20:39:25;13.30;53.30
65826;DHT22;52586;-43.152;172.732;2022-09-09T20:41:58;13.30;53.30
65826;DHT22;52586;-43.152;172.732;2022-09-09T20:44:29;13.40;53.30
65826;DHT22;52586;-43.152;172.732;2022-09-09T20:47:00;13.40;53.30
65826;DHT22;52586;-43.152;172.732;2022-09-09T20:49:33;13.30;53.30
65826;DHT22;52586;-43.152;172.732;2022-09-09T20:52:04;13.40;53.70
65826;DHT22;52586;-43.152;172.732;2022-09-09T20:54:34;13.50;54.40
65826;DHT22;52586;-43.152;172.732;2022-09-09T20:57:07;13.50;54.40
65826;DHT22;52586;-43.152;172.732;2022-09-09T20:59:38;13.50;54.20
65826;DHT22;52586;-43.152;172.732;2022-09-09T21:02:10;13.60;54.20
65826;DHT22;52586;-43.152;172.732;2022-09-09T21:04:41;13.60;54.40
65826;DHT22;52586;-43.152;172.732;2022-09-09T21:07:12;13.60;54.50
65826;DHT22;52586;-43.152;172.732;2022-09-09T21:09:43;13.60;54.90
65826;DHT22;52586;-43.152;172.732;2022-09-09T21:12:15;13.60;54.70
65826;DHT22;52586;-43.152;172.732;2022-09-09T21:14:46;13.70;54.80
65826;DHT22;52586;-43.152;172.732;2022-09-09T21:17:17;13.60;54.80
65826;DHT22;52586;-43.152;172.732;2022-09-09T21:19:48;13.70;54.80
65826;DHT22;52586;-43.152;172.732;2022-09-09T21:22:19;13.70;54.70
65826;DHT22;52586;-43.152;172.732;2022-09-09T21:24:50;13.70;54.70
65826;DHT22;52586;-43.152;172.732;2022-09-09T21:27:22;13.70;54.70
65826;DHT22;52586;-43.152;172.732;2022-09-09T21:29:53;13.80;54.70
65826;DHT22;52586;-43.152;172.732;2022-09-09T21:32:23;13.80;54.70
65826;DHT22;52586;-43.152;172.732;2022-09-09T21:34:54;13.80;54.70
65826;DHT22;52586;-43.152;172.732;2022-09-09T21:37:25;13.80;54.70
65826;DHT22;52586;-43.152;172.732;2022-09-09T21:39:56;13.80;54.80
65826;DHT22;52586;-43.152;172.732;2022-09-09T21:42:28;13.90;54.80
65826;DHT22;52586;-43.152;172.732;2022-09-09T21:44:59;13.90;54.90